Time;durP1;ratioP1;P1;durP2;ratioP2;P2;SDS_P1;SDS_P2;PMS_P1;PMS_P2;Temp;Humidity;BMP_temperature;BMP_pressure;BME280_temperature;BME280_humidity;BME280_pressure;Samples;Min_cycle;Max_cycle;Signal;HPM_P1;HPM_P2
2021/11/23 00:01:53;;;;;;;3.22;2.40;;;4.40;99.90;;;4.07;72.44;102279.22;4104026;28;20028;-76
2021/11/23 00:03:53;;;;;;;3.17;2.42;;;4.50;99.90;;;3.93;73.19;102295.56;4120019;28;20038;-76
2021/11/23 00:05:54;;;;;;;3.92;2.90;;;4.50;99.90;;;3.97;72.78;102291.06;4103617;28;20046;-75
2021/11/23 00:07:55;;;;;;;5.80;3.63;;;4.40;99.90;;;4.01;73.18;102287.34;4119411;28;20026;-76
2021/11/23 00:09:56;;;;;;;4.28;2.67;;;4.40;99.90;;;3.90;73.08;102290.50;4103910;28;20090;-75
2021/11/23 00:11:57;;;;;;;3.75;2.83;;;4.40;99.90;;;3.93;73.16;102292.97;4105103;28;20110;-75
2021/11/23 00:13:58;;;;;;;3.88;2.80;;;4.40;99.90;;;3.94;72.72;102291.22;4103819;28;20154;-76
2021/11/23 00:15:59;;;;;;;3.42;2.80;;;4.40;99.90;;;3.96;73.04;102291.97;4103718;28;20043;-75
2021/11/23 00:18:05;;;;;;;3.85;3.20;;;4.40;99.90;;;3.84;73.34;102286.44;4105107;28;20494;-75
2021/11/23 00:20:07;;;;;;;4.13;2.70;;;4.40;99.90;;;3.82;74.18;102277.00;4103741;28;20027;-75
2021/11/23 00:22:08;;;;;;;4.78;2.85;;;4.40;99.90;;;3.90;74.21;102282.69;4104773;28;20038;-76
2021/11/23 00:24:10;;;;;;;5.30;3.53;;;4.40;99.90;;;3.67;74.55;102272.53;4103763;28;20027;-76
2021/11/23 00:26:11;;;;;;;3.65;3.20;;;4.30;99.90;;;3.68;74.37;102277.66;4104797;28;20487;-76
2021/11/23 00:28:13;;;;;;;5.38;3.10;;;4.30;99.90;;;3.67;74.03;102273.38;4104868;28;20034;-76
2021/11/23 00:30:14;;;;;;;3.40;2.55;;;4.30;99.90;;;3.67;74.59;102280.34;4103586;28;20114;-76
2021/11/23 00:32:15;;;;;;;3.65;2.90;;;4.30;99.90;;;3.57;74.74;102266.03;4104917;28;20070;-76
2021/11/23 00:34:15;;;;;;;5.05;4.00;;;4.30;99.90;;;3.69;75.18;102270.69;4103653;28;20038;-75
2021/11/23 00:36:16;;;;;;;4.03;2.83;;;4.30;99.90;;;3.77;74.55;102268.53;4119473;28;20060;-76
2021/11/23 00:38:17;;;;;;;5.75;3.45;;;4.30;99.90;;;3.82;74.51;102271.78;4104472;28;20027;-76
2021/11/23 00:40:20;;;;;;;3.83;2.88;;;4.30;99.90;;;3.72;74.58;102254.88;4103493;28;20047;-76
2021/11/23 00:42:21;;;;;;;3.17;2.80;;;4.30;99.90;;;3.77;74.15;102256.31;4105036;28;20095;-75
2021/11/23 00:44:22;;;;;;;3.35;2.80;;;4.30;99.90;;;3.91;74.34;102261.69;4104570;28;20028;-75
2021/11/23 00:46:23;;;;;;;2.92;2.63;;;4.30;99.90;;;3.74;75.16;102263.44;4119066;28;20047;-75
2021/11/23 00:48:24;;;;;;;4.32;3.05;;;4.30;99.90;;;3.68;75.19;102268.97;4118817;28;20087;-76
2021/11/23 00:50:25;;;;;;;5.18;2.75;;;4.20;99.90;;;3.78;75.48;102276.28;4110528;28;20035;-76
2021/11/23 00:52:26;;;;;;;4.40;3.00;;;4.30;99.90;;;3.62;75.66;102267.50;4119144;28;20534;-75
2021/11/23 00:54:27;;;;;;;3.75;2.97;;;4.30;99.90;;;3.76;74.95;102269.47;4105800;28;20034;-76
2021/11/23 00:56:28;;;;;;;5.18;3.70;;;4.20;99.90;;;3.69;75.31;102268.91;4103104;28;20506;-75
2021/11/23 00:58:29;;;;;;;3.70;2.80;;;4.20;99.90;;;3.65;75.47;102264.75;4118347;28;20033;-76
2021/11/23 01:00:30;;;;;;;4.68;3.05;;;4.20;99.90;;;3.80;75.32;102268.38;4103266;28;20027;-76
2021/11/23 01:02:31;;;;;;;4.10;3.50;;;4.20;99.90;;;3.53;75.33;102265.34;4104360;28;20550;-76
2021/11/23 01:04:33;;;;;;;4.40;3.30;;;4.20;99.90;;;3.56;75.72;102264.34;4104199;28;20086;-76
2021/11/23 01:06:33;;;;;;;4.57;3.38;;;4.20;99.90;;;3.49;75.75;102262.97;4104404;28;20380;-76
2021/11/23 01:08:39;;;;;;;7.57;3.40;;;4.30;99.90;;;3.56;76.37;102270.41;4104049;28;20038;-76
2021/11/23 01:10:41;;;;;;;3.88;3.28;;;4.20;99.90;;;3.52;76.62;102268.03;4104258;28;20042;-75
2021/11/23 01:12:42;;;;;;;3.78;3.10;;;4.10;99.90;;;3.52;76.03;102281.94;4102889;28;20507;-75
2021/11/23 01:14:44;;;;;;;4.80;3.42;;;4.10;99.90;;;3.52;76.29;102273.25;4102845;28;20031;-75
2021/11/23 01:16:47;;;;;;;3.90;3.15;;;4.10;99.90;;;3.51;76.78;102276.78;4104221;28;20507;-76
2021/11/23 01:18:49;;;;;;;3.58;3.28;;;4.00;99.90;;;3.51;76.78;102282.84;4102970;28;20032;-75
2021/11/23 01:20:50;;;;;;;4.10;3.10;;;4.00;99.90;;;3.50;76.74;102285.50;4102793;28;20031;-75
2021/11/23 01:22:53;;;;;;;4.55;3.10;;;4.00;99.90;;;3.46;76.36;102276.16;4102598;28;20032;-75
2021/11/23 01:24:54;;;;;;;7.15;3.53;;;4.00;99.90;;;3.37;76.74;102271.38;4104147;28;20106;-75
2021/11/23 01:26:55;;;;;;;4.28;3.30;;;4.00;99.90;;;3.28;77.94;102270.91;4104083;28;20035;-75
2021/11/23 01:28:56;;;;;;;3.78;3.05;;;4.00;99.90;;;3.34;77.35;102270.59;4103041;28;20431;-75
2021/11/23 01:30:57;;;;;;;4.13;3.08;;;4.00;99.90;;;3.31;78.42;102270.75;4104062;28;20058;-76
2021/11/23 01:32:58;;;;;;;4.78;3.60;;;4.00;99.90;;;3.44;77.75;102280.59;4104059;28;20031;-76
2021/11/23 01:34:59;;;;;;;4.40;3.60;;;4.00;99.90;;;3.38;77.53;102279.13;4102743;28;20038;-76
2021/11/23 01:37:00;;;;;;;5.53;3.40;;;4.00;99.90;;;3.41;77.64;102270.28;4118456;28;20038;-75
2021/11/23 01:39:01;;;;;;;4.80;3.50;;;4.00;99.90;;;3.32;78.47;102272.44;4102809;28;20519;-76
2021/11/23 01:41:02;;;;;;;4.13;3.45;;;4.00;99.90;;;3.49;77.46;102276.00;4103934;28;20029;-76
2021/11/23 01:43:05;;;;;;;4.85;3.22;;;4.00;99.90;;;3.46;77.45;102276.16;4102746;28;20027;-75
2021/11/23 01:45:08;;;;;;;3.90;3.30;;;4.00;99.90;;;3.40;77.81;102279.91;4102565;28;20032;-75
2021/11/23 01:47:09;;;;;;;5.18;3.75;;;4.00;99.90;;;3.41;78.76;102288.56;4108020;28;20499;-76
2021/11/23 01:49:10;;;;;;;4.75;3.53;;;4.00;99.90;;;3.53;77.91;102282.75;4119793;28;20042;-76
2021/11/23 01:51:11;;;;;;;5.93;3.55;;;4.00;99.90;;;3.31;78.66;102281.19;4118592;28;20035;-76
2021/11/23 01:53:12;;;;;;;5.07;3.17;;;3.90;99.90;;;3.39;78.87;102279.97;4118115;28;20078;-75
2021/11/23 01:55:13;;;;;;;5.68;3.58;;;3.90;99.90;;;3.38;78.29;102283.47;4134713;28;20027;-75
2021/11/23 01:57:16;;;;;;;4.90;3.47;;;3.90;99.90;;;3.46;78.54;102273.56;4119695;28;20447;-75
2021/11/23 01:59:17;;;;;;;5.55;3.72;;;3.90;99.90;;;3.38;77.96;102276.50;4119698;28;20446;-76
2021/11/23 02:01:18;;;;;;;7.25;4.05;;;3.90;99.90;;;3.30;78.47;102279.50;4119515;28;20054;-75
2021/11/23 02:03:19;;;;;;;6.22;3.88;;;4.00;99.90;;;3.29;79.40;102261.28;4119702;28;20073;-76
2021/11/23 02:05:20;;;;;;;7.30;4.70;;;3.90;99.90;;;3.43;78.51;102273.69;4119649;28;20027;-76
2021/11/23 02:07:21;;;;;;;6.57;3.95;;;3.90;99.90;;;3.35;78.56;102271.44;4118206;28;20062;-76
2021/11/23 02:09:22;;;;;;;4.75;3.35;;;3.90;99.90;;;3.25;79.01;102263.22;4134980;28;20030;-75
2021/11/23 02:11:23;;;;;;;8.07;4.05;;;4.00;99.90;;;3.24;79.92;102261.53;4121860;28;20030;-76
2021/11/23 02:13:25;;;;;;;5.45;3.83;;;3.90;99.90;;;3.25;79.16;102275.41;4137920;28;20070;-76
2021/11/23 02:15:27;;;;;;;6.07;4.05;;;3.80;99.90;;;3.21;80.39;102266.88;4105867;28;20062;-75
2021/11/23 02:17:28;;;;;;;7.00;4.03;;;3.80;99.90;;;3.14;80.72;102278.50;4122751;28;20039;-76
2021/11/23 02:19:29;;;;;;;5.82;4.40;;;3.80;99.90;;;3.19;79.96;102254.84;4121644;28;20030;-76
2021/11/23 02:21:30;;;;;;;5.95;4.22;;;3.80;99.90;;;3.19;79.75;102265.28;4122859;28;20030;-76
2021/11/23 02:23:31;;;;;;;5.00;4.10;;;3.80;99.90;;;3.28;79.65;102262.22;4121326;28;20031;-75
2021/11/23 02:25:32;;;;;;;8.13;4.20;;;3.70;99.90;;;3.26;80.14;102267.50;4122640;28;20030;-75
2021/11/23 02:27:33;;;;;;;6.93;3.97;;;3.80;99.90;;;3.21;80.75;102264.28;4121608;28;20034;-75
2021/11/23 02:29:34;;;;;;;6.30;4.18;;;3.80;99.90;;;3.22;80.11;102254.69;4122719;28;20062;-75
2021/11/23 02:31:35;;;;;;;8.70;4.40;;;3.80;99.90;;;3.41;79.47;102260.72;4122666;28;20027;-75
2021/11/23 02:33:38;;;;;;;5.70;4.20;;;3.80;99.90;;;3.41;79.48;102257.25;4121299;28;20027;-75
2021/11/23 02:35:39;;;;;;;6.68;4.45;;;3.80;99.90;;;3.28;79.28;102246.59;4122591;28;20026;-75
2021/11/23 02:37:44;;;;;;;6.25;4.60;;;3.90;99.90;;;3.30;79.52;102235.16;4122467;28;20023;-75
2021/11/23 02:39:45;;;;;;;6.50;5.20;;;3.80;99.90;;;3.29;79.71;102238.66;4122614;28;20105;-75
2021/11/23 02:41:46;;;;;;;5.03;4.30;;;3.90;99.90;;;3.17;80.47;102236.66;4122435;28;20030;-75
2021/11/23 02:43:48;;;;;;;5.75;4.38;;;3.70;99.90;;;3.26;80.13;102246.66;4122524;28;20030;-75
2021/11/23 02:45:50;;;;;;;7.22;4.82;;;3.70;99.90;;;3.29;80.17;102243.88;4122351;28;20504;-75
2021/11/23 02:47:52;;;;;;;6.05;4.70;;;3.60;99.90;;;3.31;79.62;102233.41;4122340;28;20469;-76
2021/11/23 02:49:53;;;;;;;5.72;4.68;;;3.70;99.90;;;3.14;80.97;102247.22;4122287;28;20038;-75
2021/11/23 02:51:53;;;;;;;5.63;4.50;;;3.60;99.90;;;3.31;79.58;102242.06;4122210;28;20030;-75
2021/11/23 02:53:54;;;;;;;8.13;4.82;;;3.70;99.90;;;3.18;80.65;102232.28;4111910;28;20530;-75
2021/11/23 02:55:56;;;;;;;8.13;4.72;;;3.80;99.90;;;3.30;80.63;102236.91;4106238;28;20118;-75
2021/11/23 02:57:57;;;;;;;5.93;4.45;;;3.60;99.90;;;3.34;79.05;102236.69;4106194;28;20483;-75
2021/11/23 02:59:58;;;;;;;6.40;4.40;;;3.70;99.90;;;3.21;80.65;102235.59;4104963;28;20020;-75
2021/11/23 03:01:59;;;;;;;8.20;4.28;;;3.60;99.90;;;3.31;79.38;102234.25;4106336;28;20079;-75
2021/11/23 03:04:00;;;;;;;5.40;4.30;;;3.60;99.90;;;3.40;78.65;102235.56;4106164;28;20031;-75
2021/11/23 03:06:01;;;;;;;7.60;4.55;;;3.60;99.90;;;3.35;79.86;102247.97;4106077;28;20141;-75
2021/11/23 03:08:03;;;;;;;6.95;4.13;;;3.60;99.90;;;3.31;79.78;102244.69;4106002;28;20030;-75
2021/11/23 03:10:08;;;;;;;7.07;4.40;;;3.60;99.90;;;3.09;80.77;102249.19;4105040;28;20039;-75
2021/11/23 03:12:25;;;;;;;7.05;4.70;;;3.60;99.90;;;3.17;80.43;102247.06;4104945;28;20023;-75
2021/11/23 03:14:26;;;;;;;7.38;4.10;;;3.60;99.90;;;2.96;80.57;102242.00;4104692;28;20086;-75
2021/11/23 03:16:27;;;;;;;14.77;4.90;;;3.60;99.90;;;2.90;81.03;102245.75;4105929;28;20035;-75
2021/11/23 03:18:28;;;;;;;8.38;4.20;;;3.60;99.90;;;2.90;81.89;102252.75;4105998;28;20035;-75
2021/11/23 03:20:29;;;;;;;8.00;5.10;;;3.40;99.90;;;3.00;82.02;102248.78;4104417;28;20024;-75
2021/11/23 03:22:30;;;;;;;8.70;4.40;;;3.50;99.90;;;3.01;81.74;102250.47;4119755;28;20066;-75
2021/11/23 03:24:31;;;;;;;8.10;5.65;;;3.40;99.90;;;3.09;80.79;102257.03;4105996;28;20027;-75
2021/11/23 03:26:32;;;;;;;6.55;4.35;;;3.50;99.90;;;3.03;81.69;102244.28;4104742;28;20050;-75
2021/11/23 03:28:33;;;;;;;7.95;5.13;;;3.50;99.90;;;3.07;81.53;102244.97;4105833;28;20027;-76
2021/11/23 03:30:35;;;;;;;6.05;4.68;;;3.50;99.90;;;2.87;81.45;102243.28;4104473;28;20039;-75
2021/11/23 03:32:37;;;;;;;7.10;5.07;;;3.50;99.90;;;2.93;81.87;102234.34;4104639;28;20034;-75
2021/11/23 03:34:39;;;;;;;7.22;4.78;;;3.40;99.90;;;2.87;83.11;102239.84;4104538;28;20066;-75
2021/11/23 03:36:42;;;;;;;8.10;4.88;;;3.20;99.90;;;2.84;82.95;102242.59;4104062;28;20036;-75
2021/11/23 03:38:43;;;;;;;6.40;5.10;;;3.20;99.90;;;2.90;83.70;102237.09;4105635;28;20082;-75
2021/11/23 03:40:44;;;;;;;6.03;4.55;;;3.30;99.90;;;2.99;81.80;102227.06;4104622;28;20068;-75
2021/11/23 03:42:46;;;;;;;6.88;4.70;;;3.40;99.90;;;2.98;81.96;102230.63;4120435;28;20108;-75
2021/11/23 03:44:47;;;;;;;8.23;4.78;;;3.40;99.90;;;2.79;83.96;102230.59;4105642;28;20395;-75
2021/11/23 03:46:48;;;;;;;8.32;5.10;;;3.40;99.90;;;2.84;83.19;102232.19;4106861;28;20102;-75
2021/11/23 03:48:49;;;;;;;10.52;5.25;;;3.30;99.90;;;2.79;82.87;102232.38;4121629;28;20041;-75
2021/11/23 03:50:50;;;;;;;7.22;4.70;;;3.40;99.90;;;2.73;83.48;102217.88;4121570;28;20069;-75
2021/11/23 03:52:51;;;;;;;7.53;4.72;;;3.30;99.90;;;2.79;84.46;102234.97;4118022;28;20030;-75
2021/11/23 03:54:52;;;;;;;7.85;4.90;;;3.30;99.90;;;2.71;84.61;102234.47;4120152;28;20031;-75
2021/11/23 03:56:54;;;;;;;7.95;4.95;;;3.20;99.90;;;2.93;83.22;102239.56;4104296;28;20075;-75
2021/11/23 03:58:54;;;;;;;7.28;4.85;;;3.20;99.90;;;2.89;83.95;102251.88;4104311;28;20034;-75
2021/11/23 04:00:55;;;;;;;8.80;5.15;;;3.30;99.90;;;2.91;83.24;102241.38;4105339;28;20066;-75
2021/11/23 04:02:57;;;;;;;7.85;5.57;;;3.20;99.90;;;3.00;83.46;102241.81;4104021;28;20054;-75
2021/11/23 04:04:57;;;;;;;9.48;5.05;;;3.30;99.90;;;3.10;83.70;102245.69;4105402;28;20106;-75
2021/11/23 04:06:58;;;;;;;8.05;5.50;;;3.40;99.90;;;3.08;82.90;102239.69;4103958;28;20470;-75
2021/11/23 04:08:59;;;;;;;10.52;5.78;;;3.30;99.90;;;3.07;83.48;102238.00;4105286;28;20055;-75
2021/11/23 04:11:00;;;;;;;9.15;5.57;;;3.40;99.90;;;2.92;84.97;102228.28;4103905;28;20038;-75
2021/11/23 04:13:01;;;;;;;9.50;4.97;;;3.40;99.90;;;3.05;84.44;102246.78;4105382;28;20031;-75
2021/11/23 04:15:05;;;;;;;11.77;5.90;;;3.40;99.90;;;2.80;83.89;102231.47;4104130;28;20066;-75
2021/11/23 04:17:06;;;;;;;7.85;5.20;;;3.40;99.90;;;3.01;84.00;102250.47;4103888;28;20035;-75
2021/11/23 04:19:07;;;;;;;9.85;6.38;;;3.30;99.90;;;2.76;84.25;102241.16;4103862;28;20106;-75
2021/11/23 04:21:08;;;;;;;9.40;5.05;;;3.30;99.90;;;2.57;85.29;102245.50;4105203;28;20047;-75
2021/11/23 04:23:09;;;;;;;9.13;5.43;;;3.40;99.90;;;2.78;84.98;102243.69;4104861;28;20551;-75
2021/11/23 04:25:12;;;;;;;8.27;5.80;;;3.30;99.90;;;2.76;83.84;102248.13;4119797;28;20517;-75
2021/11/23 04:27:13;;;;;;;10.63;6.07;;;3.30;99.90;;;2.70;84.95;102236.25;4103733;28;20098;-75
2021/11/23 04:29:14;;;;;;;8.25;5.43;;;3.20;99.90;;;2.87;86.26;102219.81;4105083;28;20487;-75
2021/11/23 04:31:14;;;;;;;8.95;6.30;;;3.30;99.90;;;3.01;84.40;102230.47;4104968;28;20035;-75
2021/11/23 04:33:16;;;;;;;10.23;5.95;;;3.30;99.90;;;2.91;84.52;102239.63;4104685;28;20031;-75
2021/11/23 04:35:18;;;;;;;9.10;6.25;;;3.30;99.90;;;2.56;86.18;102230.81;4104700;28;20037;-75
2021/11/23 04:37:19;;;;;;;9.27;6.30;;;3.30;99.90;;;2.60;87.16;102229.75;4103425;28;20054;-75
2021/11/23 04:39:19;;;;;;;12.70;6.75;;;3.20;99.90;;;2.54;87.26;102216.16;4104806;28;20031;-75
2021/11/23 04:41:20;;;;;;;13.13;6.22;;;3.30;99.90;;;2.57;87.37;102223.84;4104743;28;20023;-75
2021/11/23 04:43:21;;;;;;;11.65;7.22;;;3.20;99.90;;;2.49;87.72;102220.72;4103473;28;20098;-75
2021/11/23 04:45:22;;;;;;;10.18;6.38;;;3.20;99.90;;;2.37;88.81;102216.06;4119557;28;20023;-75
2021/11/23 04:47:23;;;;;;;9.38;6.72;;;3.10;99.90;;;2.38;88.64;102230.78;4111998;28;20549;-75
2021/11/23 04:49:24;;;;;;;10.93;6.82;;;3.10;99.90;;;2.50;88.97;102238.91;4120696;28;20035;-75
2021/11/23 04:51:25;;;;;;;12.20;6.75;;;3.10;99.90;;;2.39;88.85;102235.06;4120427;28;20034;-75
2021/11/23 04:53:26;;;;;;;9.88;6.78;;;3.20;99.90;;;2.34;89.58;102237.88;4112769;28;20114;-75
2021/11/23 04:55:27;;;;;;;11.50;7.18;;;3.20;99.90;;;2.36;89.45;102219.59;4104599;28;20035;-75
2021/11/23 04:57:28;;;;;;;11.48;6.50;;;3.10;99.90;;;2.38;89.63;102238.59;4103233;28;20031;-75
2021/11/23 04:59:29;;;;;;;10.27;6.53;;;3.00;99.90;;;2.42;90.18;102214.13;4119136;28;20473;-75
2021/11/23 05:01:30;;;;;;;11.93;6.72;;;3.10;99.90;;;2.50;88.91;102217.22;4104433;28;20031;-75
2021/11/23 05:03:31;;;;;;;13.20;6.80;;;3.10;99.90;;;2.31;90.51;102219.78;4103353;28;20019;-75
2021/11/23 05:05:32;;;;;;;12.68;7.40;;;3.10;99.90;;;2.40;90.45;102229.78;4104343;28;20023;-75
2021/11/23 05:07:32;;;;;;;9.13;6.50;;;3.60;99.90;;;2.31;90.44;102213.72;4103994;28;20027;-75
2021/11/23 05:09:34;;;;;;;13.38;7.13;;;3.10;99.90;;;2.36;90.51;102223.00;4104365;28;20031;-75
2021/11/23 05:11:37;;;;;;;11.32;7.57;;;3.10;99.90;;;2.30;90.82;102223.28;4103156;28;20166;-76
2021/11/23 05:13:38;;;;;;;10.30;7.30;;;3.10;99.90;;;2.27;91.44;102217.38;4104267;28;20027;-75
2021/11/23 05:15:39;;;;;;;12.38;6.95;;;3.10;99.90;;;2.37;91.35;102232.53;4102887;28;20031;-75
2021/11/23 05:17:40;;;;;;;13.27;8.70;;;3.10;99.90;;;2.37;91.13;102226.47;4103082;28;20065;-75
2021/11/23 05:19:41;;;;;;;13.93;7.53;;;3.00;99.90;;;2.42;91.42;102214.13;4104241;28;20376;-75
2021/11/23 05:21:42;;;;;;;11.30;7.68;;;3.10;99.90;;;2.33;91.49;102232.75;4103888;28;20035;-75
2021/11/23 05:23:43;;;;;;;10.80;7.40;;;3.10;99.90;;;2.38;91.40;102235.97;4103013;28;20024;-75
2021/11/23 05:25:44;;;;;;;13.40;7.72;;;3.00;99.90;;;2.28;91.87;102232.06;4104011;28;20038;-75
2021/11/23 05:27:45;;;;;;;12.07;7.90;;;3.10;99.90;;;2.30;91.90;102219.84;4104097;28;20027;-75
2021/11/23 05:29:46;;;;;;;12.95;8.18;;;3.10;99.90;;;2.53;90.98;102235.31;4102828;28;20095;-75
2021/11/23 05:31:47;;;;;;;11.20;7.10;;;3.10;99.90;;;2.61;91.29;102225.38;4103934;28;20019;-75
2021/11/23 05:33:47;;;;;;;15.05;8.23;;;3.10;99.90;;;2.59;90.23;102222.00;4103818;28;20407;-75
2021/11/23 05:35:51;;;;;;;14.07;7.55;;;3.20;99.90;;;2.48;91.04;102227.69;4103920;28;20034;-75
2021/11/23 05:37:52;;;;;;;10.90;8.02;;;3.20;99.90;;;2.35;91.63;102223.09;4102566;28;20043;-75
2021/11/23 05:39:53;;;;;;;11.65;7.45;;;3.50;99.90;;;2.61;90.98;102231.44;4103884;28;20042;-75
2021/11/23 05:41:54;;;;;;;11.23;8.15;;;3.20;99.90;;;2.45;91.44;102235.63;4103873;28;20031;-75
2021/11/23 05:43:55;;;;;;;12.93;7.95;;;3.20;99.90;;;2.50;91.57;102238.03;4102288;28;20038;-75
2021/11/23 05:45:56;;;;;;;10.45;8.18;;;3.20;99.90;;;2.55;91.48;102226.50;4102258;28;20106;-75
2021/11/23 05:47:57;;;;;;;12.73;8.30;;;3.20;99.90;;;2.53;90.89;102230.09;4114400;28;20038;-75
2021/11/23 05:49:57;;;;;;;12.15;7.38;;;3.20;99.90;;;2.49;90.90;102228.53;4134534;28;20469;-75
2021/11/23 05:51:59;;;;;;;10.13;7.85;;;3.20;99.90;;;2.44;91.26;102222.69;4118359;28;20019;-75
2021/11/23 05:54:00;;;;;;;13.85;8.57;;;3.20;99.90;;;2.47;91.49;102231.22;4120739;28;20090;-75
2021/11/23 05:56:03;;;;;;;16.25;7.72;;;3.20;99.90;;;2.44;91.80;102233.09;4119687;28;20030;-75
2021/11/23 05:58:04;;;;;;;13.55;7.95;;;3.20;99.90;;;2.60;90.78;102231.50;4118333;28;20027;-75
2021/11/23 06:00:07;;;;;;;11.10;7.93;;;3.10;99.90;;;2.43;90.85;102241.81;4118394;28;20027;-75
2021/11/23 06:02:08;;;;;;;13.13;8.23;;;3.20;99.90;;;2.57;91.23;102229.06;4119702;28;20035;-75
2021/11/23 06:04:09;;;;;;;11.93;7.18;;;3.20;99.90;;;2.60;89.49;102228.88;4119580;28;20054;-75
2021/11/23 06:06:13;;;;;;;12.10;8.50;;;3.20;99.90;;;2.60;89.62;102229.75;4118453;28;20101;-75
2021/11/23 06:08:14;;;;;;;12.32;7.82;;;3.20;99.90;;;2.54;90.54;102231.81;4118217;28;20027;-75
2021/11/23 06:10:15;;;;;;;14.02;7.72;;;3.20;99.90;;;2.68;89.72;102234.63;4119528;28;20085;-75
2021/11/23 06:12:16;;;;;;;12.50;7.65;;;3.20;99.90;;;2.69;89.23;102234.53;4119468;28;20027;-75
2021/11/23 06:14:17;;;;;;;10.93;7.72;;;3.20;99.90;;;2.62;89.63;102233.13;4119387;28;20035;-75
2021/11/23 06:16:18;;;;;;;13.18;8.55;;;3.20;99.90;;;2.61;89.97;102231.44;4119505;28;20038;-75
2021/11/23 06:18:19;;;;;;;10.85;7.28;;;3.20;99.90;;;2.61;89.59;102235.78;4118380;28;20082;-75
2021/11/23 06:20:19;;;;;;;17.00;7.22;;;3.30;99.90;;;2.63;89.97;102237.41;4118212;28;20050;-75
2021/11/23 06:22:22;;;;;;;11.48;7.45;;;3.30;99.90;;;2.52;88.90;102236.22;4117909;28;20027;-75
2021/11/23 06:24:23;;;;;;;11.15;7.40;;;3.30;99.90;;;2.63;89.07;102240.03;4118300;28;20102;-75
2021/11/23 06:26:24;;;;;;;12.63;6.95;;;3.20;99.90;;;2.71;88.73;102237.94;4118192;28;20038;-75
2021/11/23 06:28:26;;;;;;;10.13;7.25;;;3.30;99.90;;;2.52;88.63;102242.28;4119468;28;20027;-75
2021/11/23 06:30:29;;;;;;;9.95;6.97;;;3.30;99.90;;;2.51;88.75;102232.75;4117765;28;20038;-75
2021/11/23 06:32:30;;;;;;;10.38;6.75;;;3.20;99.90;;;2.59;88.49;102248.91;4119618;28;20446;-75
2021/11/23 06:34:31;;;;;;;11.57;6.72;;;3.30;99.90;;;2.55;88.66;102230.88;4119275;28;20027;-75
2021/11/23 06:36:32;;;;;;;9.88;7.57;;;3.20;99.90;;;2.69;87.67;102249.31;4118960;28;20039;-75
2021/11/23 06:38:33;;;;;;;12.00;7.63;;;3.30;99.90;;;2.62;88.96;102243.56;4117766;28;20407;-75
2021/11/23 06:40:37;;;;;;;12.18;7.57;;;3.30;99.90;;;2.65;87.90;102238.22;4119389;28;20023;-75
2021/11/23 06:42:38;;;;;;;10.70;7.78;;;3.30;99.90;;;2.85;88.18;102239.91;4118177;28;20026;-75
2021/11/23 06:44:39;;;;;;;10.75;7.43;;;3.30;99.90;;;2.53;88.54;102233.56;4119221;28;20023;-76
2021/11/23 06:46:41;;;;;;;11.13;7.25;;;3.30;99.90;;;2.71;87.24;102242.31;4118917;28;20054;-76
2021/11/23 06:48:42;;;;;;;9.13;6.35;;;3.20;99.90;;;2.72;87.12;102241.38;4134191;28;20027;-75
2021/11/23 06:50:43;;;;;;;11.55;6.68;;;3.30;99.90;;;2.79;86.93;102250.59;4119247;28;20022;-75
2021/11/23 06:52:44;;;;;;;10.75;7.03;;;3.30;99.90;;;2.69;86.54;102241.50;4116725;28;20038;-75
2021/11/23 06:54:46;;;;;;;9.82;7.93;;;3.30;99.90;;;2.53;86.77;102240.50;4116702;28;20031;-75
2021/11/23 06:56:53;;;;;;;11.68;6.95;;;3.30;99.90;;;2.39;88.29;102250.69;4121843;28;20027;-75
2021/11/23 06:58:56;;;;;;;12.70;7.93;;;3.20;99.90;;;2.55;88.08;102262.13;4121996;28;20038;-75
2021/11/23 07:00:57;;;;;;;11.73;7.78;;;3.20;99.90;;;2.71;87.09;102256.19;4122216;28;20407;-75
2021/11/23 07:02:58;;;;;;;10.88;7.43;;;3.20;99.90;;;2.78;86.45;102246.31;4120847;28;20029;-76
2021/11/23 07:05:00;;;;;;;12.65;7.97;;;3.30;99.90;;;2.52;86.34;102257.03;4121039;28;20106;-75
2021/11/23 07:07:01;;;;;;;10.38;7.80;;;3.20;99.90;;;2.66;86.23;102259.88;4136794;28;20026;-75
2021/11/23 07:09:02;;;;;;;11.88;7.15;;;3.20;99.90;;;2.49;86.77;102255.44;4120807;28;20030;-76
2021/11/23 07:11:05;;;;;;;9.50;6.20;;;3.10;99.90;;;2.66;86.01;102275.50;4122021;28;20442;-76
2021/11/23 07:13:06;;;;;;;11.15;7.05;;;3.10;99.90;;;2.76;85.36;102274.19;4120840;28;20042;-76
2021/11/23 07:15:09;;;;;;;9.20;7.00;;;3.10;99.90;;;2.73;85.26;102267.38;4121950;28;20035;-75
2021/11/23 07:17:10;;;;;;;10.52;6.82;;;3.20;99.90;;;2.73;84.53;102274.34;4120651;28;20038;-74
2021/11/23 07:19:12;;;;;;;12.57;7.40;;;3.20;99.90;;;2.52;85.30;102270.06;4121659;28;20490;-74
2021/11/23 07:21:13;;;;;;;9.02;7.68;;;3.20;99.90;;;2.61;85.31;102275.72;4120774;28;20033;-75
2021/11/23 07:23:14;;;;;;;10.07;7.00;;;3.20;99.90;;;2.54;85.80;102276.06;4121745;28;20027;-75
2021/11/23 07:25:15;;;;;;;9.80;7.15;;;3.20;99.90;;;2.52;86.15;102277.88;4120537;28;20027;-75
2021/11/23 07:27:17;;;;;;;10.60;7.00;;;3.20;99.90;;;2.58;85.16;102278.47;4136570;28;20066;-75
2021/11/23 07:29:18;;;;;;;9.30;6.75;;;3.20;99.90;;;2.69;84.56;102285.78;4120585;28;20031;-76
2021/11/23 07:31:19;;;;;;;9.65;7.65;;;3.30;99.90;;;2.56;84.86;102264.66;4120522;28;20039;-75
2021/11/23 07:33:21;;;;;;;10.77;7.07;;;3.50;99.90;;;2.81;83.61;102268.78;4120480;28;20054;-75
2021/11/23 07:35:23;;;;;;;11.13;7.32;;;3.30;99.90;;;2.70;83.55;102264.91;4104305;28;20126;-76
2021/11/23 07:37:27;;;;;;;10.23;6.85;;;3.20;99.90;;;2.70;83.30;102271.84;4135961;28;20080;-76
2021/11/23 07:39:28;;;;;;;11.18;6.82;;;3.30;99.90;;;2.78;83.56;102269.75;4120498;28;20073;-76
2021/11/23 07:41:30;;;;;;;14.23;6.97;;;3.30;99.90;;;2.81;83.28;102279.22;4120315;28;20042;-75
2021/11/23 07:43:31;;;;;;;9.88;6.43;;;3.30;99.90;;;2.68;82.94;102284.13;4136262;28;20505;-75
2021/11/23 07:45:32;;;;;;;11.13;7.20;;;4.30;99.90;;;2.61;83.45;102288.75;4120270;28;20030;-75
2021/11/23 07:47:33;;;;;;;9.55;6.80;;;3.30;99.90;;;2.78;82.88;102275.81;4119981;28;20138;-75
2021/11/23 07:49:34;;;;;;;9.00;6.40;;;3.30;99.90;;;2.70;82.83;102279.69;4120296;28;20614;-75
2021/11/23 07:51:36;;;;;;;9.15;6.32;;;3.30;99.90;;;2.66;82.38;102293.75;4120983;28;20027;-75
2021/11/23 07:53:37;;;;;;;8.02;6.20;;;3.30;99.90;;;2.66;82.12;102283.31;4113402;28;20029;-76
2021/11/23 07:55:38;;;;;;;11.45;7.40;;;3.30;99.90;;;2.56;83.67;102290.72;4104034;28;20035;-78
2021/11/23 07:57:39;;;;;;;7.90;6.97;;;3.40;99.90;;;2.56;82.25;102277.69;4105192;28;20398;-78
2021/11/23 07:59:40;;;;;;;7.90;6.10;;;3.30;99.90;;;2.62;81.86;102289.59;4105186;28;20027;-78
2021/11/23 08:01:41;;;;;;;8.77;5.38;;;3.30;99.90;;;2.50;81.93;102280.56;4105214;28;20034;-78
2021/11/23 08:03:42;;;;;;;9.38;6.20;;;3.30;99.90;;;2.57;81.49;102268.94;4105192;28;20019;-77
2021/11/23 08:05:43;;;;;;;13.57;6.80;;;3.30;99.90;;;2.73;80.80;102285.59;4105096;28;20082;-78
2021/11/23 08:07:44;;;;;;;7.68;6.07;;;3.40;99.90;;;2.86;79.48;102287.66;4103117;28;20023;-78
2021/11/23 08:09:45;;;;;;;9.55;6.22;;;3.40;99.90;;;2.81;79.95;102284.44;4104035;28;20081;-78
2021/11/23 08:11:46;;;;;;;9.18;6.05;;;3.50;99.90;;;2.82;79.13;102291.31;4136043;28;20086;-78
2021/11/23 08:13:47;;;;;;;7.28;5.53;;;3.50;99.90;;;3.05;77.84;102297.16;4119865;28;20031;-78
2021/11/23 08:15:48;;;;;;;7.18;5.28;;;3.50;99.90;;;3.08;76.54;102284.00;4104870;28;20055;-78
2021/11/23 08:17:49;;;;;;;10.00;5.75;;;3.60;99.90;;;3.13;77.58;102289.88;4105022;28;20078;-78
2021/11/23 08:19:50;;;;;;;7.22;6.22;;;3.70;99.90;;;3.24;76.84;102287.59;4103758;28;20469;-78
2021/11/23 08:21:51;;;;;;;8.23;5.40;;;3.80;99.90;;;3.26;75.41;102285.75;4104655;28;20099;-78
2021/11/23 08:23:52;;;;;;;9.82;5.72;;;3.80;99.90;;;3.21;75.89;102272.09;4103628;28;20507;-78
2021/11/23 08:25:54;;;;;;;7.57;4.60;;;3.90;99.90;;;3.21;75.85;102274.72;4104943;28;20023;-77
2021/11/23 08:27:55;;;;;;;8.35;4.95;;;3.90;99.90;;;3.23;75.04;102283.28;4103815;28;20031;-78
2021/11/23 08:29:56;;;;;;;6.63;4.95;;;3.90;99.90;;;3.30;74.91;102270.81;4104763;28;20364;-77
2021/11/23 08:31:58;;;;;;;8.38;5.32;;;4.00;99.90;;;3.29;75.19;102285.63;4103481;28;20065;-78
2021/11/23 08:34:03;;;;;;;7.93;5.18;;;4.10;99.90;;;3.39;74.71;102269.53;4103469;28;20023;-78